NCAR-RAP Real-Time Weather Data

Output produced by METARs form (14 October 2019  23:50 UTC)
found at http://weather.rap.ucar.edu/surface/
 
KCAR 142254Z AUTO 17005KT 10SM BKN028 OVC045 14/09 A2990 RMK AO2 SLP131 T01390094
KCAR 142154Z AUTO 19007KT 10SM BKN033 OVC049 15/09 A2989 RMK AO2 SLP129 T01500089
KCAR 142054Z AUTO 17012G19KT 10SM FEW050 16/08 A2989 RMK AO2 SLP128 T01560083 56018